EAT - Pangborn Meml

Pirep is a free, collaborative database of all public and private airports located within the United States. All pilots are welcome to contribute, edit, and improve any airport they have local knowledge about, no registration required.
Uploaded photos will be licensed under a CC BY-SA 4.0 license. Please only upload photos you have the rights to use.
Tags
Public
Webcam
Food
METAR / TAF
Edit Tags
Camping
Lodging
Car Rental
Bicycles
Swimming
Golfing
Fishing
Hot Springs
Museum
Flying Clubs
Airpark
Upcoming Events
No upcoming events. Is anything happening here soon?
*
*
*

Where exactly on/near the airport is this event taking place?

Is there a webpage with more information for this event?

Who should be contacted for more information?

What is this event all about?

Repeat every
Description
Last updated: 2023-12-29 01:53:03 PST
Transient Parking
Fuel Location
Landing & Tie-down Fees
Crew Car Availability
Flying Clubs
WiFi Access
Airport Statistics
Location: Wenatchee, WA
Elevation: 1,248ft
Sectional: Seattle
Activation date: Aug 1942
Fuel: 100LL, A (prices)
Runway 12/30: 7,000ft
Access: Open to the public
Current Weather — VFR
  • Weather data is strictly informational and not for flight planning purposes.
  • METAR
    2024-04-21 21:55:00 PDT
    Ceiling Wind Temperature Dewpoint Weather Visbility
    Sky clear 320° @ 6kt 46°F 26°F N/A 10SM
    Raw: KEAT 220455Z AUTO 32006KT 10SM CLR 08/M03 A3021 RMK AO2 SLP236 T00831033
  • TAF
    2024-04-21 23:00:00 PDT – 2024-04-22 14:00:00 PDT
    Ceiling Wind Weather Visbility
    Sky clear 300° @ 9kt N/A 6SM
    Clouds: Few @ 25,000ft
    Raw: KEAT 220520Z 2206/2306 30009KT P6SM FEW250 FM222100 VRB05KT P6SM SKC
  • TAF
    2024-04-22 14:00:00 PDT – 2024-04-22 23:00:00 PDT
    Ceiling Wind Weather Visbility
    Sky clear Variable N/A 6SM
    Clouds: @ ft
    Raw: KEAT 220520Z 2206/2306 30009KT P6SM FEW250 FM222100 VRB05KT P6SM SKC
Click/tap to add an annotation marker to the map
Airport Webcam
Direct links to live image URLs will be displayed inline on this page. URLs to separate webpages will be linked to.
URL:
Direct links to live image URLs will be displayed inline on this page. URLs to separate webpages will be linked to.
URL:
Remarks
  • Estabd prior to 15 may 1959.
  • 24 hr ppr for unsked acr opns with more than 30 pax seats call ap ops (509) 860-1852.
  • Glider activity from mar-nov.
  • Cold temperature airport. altitude correction required at or below -7c.
  • Uas actvty 1.56 nm e of the eat vor, 400 ft & blw durg dalgt hrs.
Comments
Leave a comment What was your experience like at this airport?